createdAt,value
2023-05-10T00:01:11.464Z,7.34
2023-05-10T00:03:38.802Z,7.33
2023-05-10T00:06:06.153Z,7.35
2023-05-10T00:08:33.300Z,7.29
2023-05-10T00:11:00.448Z,7.29
2023-05-10T00:13:27.563Z,7.25
2023-05-10T00:15:54.723Z,7.19
2023-05-10T00:18:22.004Z,7.16
2023-05-10T00:20:50.007Z,7.12
2023-05-10T00:23:17.242Z,7.06
2023-05-10T00:25:44.358Z,7.00
2023-05-10T00:28:11.475Z,6.97
2023-05-10T00:30:38.766Z,6.88
2023-05-10T00:33:05.895Z,6.82
2023-05-10T00:35:33.434Z,6.75
2023-05-10T00:38:00.582Z,6.70
2023-05-10T00:40:27.891Z,6.64
2023-05-10T00:43:00.592Z,6.58
2023-05-10T00:45:28.353Z,6.54
2023-05-10T00:47:57.195Z,6.50
2023-05-10T00:50:24.793Z,6.48
2023-05-10T00:52:52.253Z,6.49
2023-05-10T00:55:19.584Z,6.52
2023-05-10T00:57:46.992Z,6.51
2023-05-10T01:00:19.146Z,6.48
2023-05-10T01:02:47.591Z,6.46
2023-05-10T01:05:15.191Z,6.43
2023-05-10T01:07:42.429Z,6.39
2023-05-10T01:10:11.757Z,6.36
2023-05-10T01:12:42.053Z,6.39
2023-05-10T01:15:10.474Z,6.38
2023-05-10T01:17:39.801Z,6.40
2023-05-10T01:20:12.189Z,6.38
2023-05-10T01:23:01.901Z,6.33
2023-05-10T01:25:37.878Z,6.34
2023-05-10T01:28:24.765Z,6.29
2023-05-10T01:31:06.246Z,6.31
2023-05-10T01:33:44.858Z,6.31
2023-05-10T01:36:41.456Z,6.31
2023-05-10T01:39:22.238Z,6.34
2023-05-10T01:41:56.206Z,6.35
2023-05-10T01:44:51.145Z,6.31
2023-05-10T01:47:46.106Z,6.23
2023-05-10T01:50:28.428Z,6.21
2023-05-10T01:52:58.093Z,6.23
2023-05-10T01:55:27.835Z,6.23
2023-05-10T01:58:21.700Z,6.23
2023-05-10T02:00:51.295Z,6.24
2023-05-10T02:03:22.363Z,6.23
2023-05-10T02:05:50.334Z,6.24
2023-05-10T02:08:18.989Z,6.22
2023-05-10T02:10:47.053Z,6.18
2023-05-10T02:13:15.626Z,6.14
2023-05-10T02:15:43.002Z,6.15
2023-05-10T02:18:12.324Z,6.14
2023-05-10T02:20:40.014Z,6.10
2023-05-10T02:23:08.364Z,6.05
2023-05-10T02:25:37.546Z,5.97
2023-05-10T02:28:06.489Z,5.90
2023-05-10T02:30:35.426Z,5.83
2023-05-10T02:33:04.261Z,5.81
2023-05-10T02:35:33.713Z,5.79
2023-05-10T02:38:01.621Z,5.75
2023-05-10T02:40:31.228Z,5.77
2023-05-10T02:42:59.977Z,5.83
2023-05-10T02:45:30.707Z,5.86
2023-05-10T02:47:58.899Z,5.94
2023-05-10T02:50:29.050Z,5.93
2023-05-10T02:53:01.954Z,5.96
2023-05-10T02:55:34.349Z,5.97
2023-05-10T02:58:02.811Z,5.97
2023-05-10T03:00:30.248Z,5.95
2023-05-10T03:02:57.461Z,5.97
2023-05-10T03:05:25.800Z,6.00
2023-05-10T03:07:54.010Z,5.98
2023-05-10T03:10:24.207Z,6.00
2023-05-10T03:12:59.845Z,6.00
2023-05-10T03:15:43.847Z,6.02
2023-05-10T03:18:17.171Z,6.31
2023-05-10T03:20:49.656Z,6.90
2023-05-10T03:23:19.698Z,7.50
2023-05-10T03:25:48.589Z,8.02
2023-05-10T03:28:17.148Z,8.52
2023-05-10T03:30:45.003Z,9.03
2023-05-10T03:33:14.436Z,9.48
2023-05-10T03:35:47.000Z,9.86
2023-05-10T03:38:15.237Z,10.24
2023-05-10T03:40:42.688Z,10.69
2023-05-10T03:43:09.992Z,11.09
2023-05-10T03:45:37.463Z,11.47
2023-05-10T03:48:05.273Z,11.86
2023-05-10T03:50:32.473Z,12.22
2023-05-10T03:52:59.619Z,12.54
2023-05-10T03:55:29.371Z,12.76
2023-05-10T03:57:57.208Z,13.00
2023-05-10T04:00:24.714Z,13.28
2023-05-10T04:02:54.943Z,13.61
2023-05-10T04:05:22.155Z,13.84
2023-05-10T04:07:50.550Z,13.99
2023-05-10T04:10:18.161Z,14.24
2023-05-10T04:12:45.539Z,14.56
2023-05-10T04:15:12.816Z,14.69
2023-05-10T04:17:39.991Z,14.72
2023-05-10T04:20:07.875Z,14.73
2023-05-10T04:22:35.039Z,14.83
2023-05-10T04:25:02.144Z,14.85
2023-05-10T04:27:29.385Z,14.99
2023-05-10T04:29:56.567Z,15.05
2023-05-10T04:32:23.725Z,15.18
2023-05-10T04:34:52.689Z,15.22
2023-05-10T04:37:19.888Z,15.19
2023-05-10T04:39:47.551Z,15.17
2023-05-10T04:42:16.178Z,15.22
2023-05-10T04:44:43.820Z,15.29
2023-05-10T04:47:12.691Z,14.95
2023-05-10T04:49:40.051Z,13.95
2023-05-10T04:52:07.530Z,13.18
2023-05-10T04:54:34.574Z,12.73
2023-05-10T04:57:01.717Z,12.57
2023-05-10T04:59:28.915Z,12.49
2023-05-10T05:01:56.472Z,12.48
2023-05-10T05:04:24.732Z,12.47
2023-05-10T05:06:53.784Z,12.47
2023-05-10T05:09:21.234Z,12.52
2023-05-10T05:11:48.325Z,12.63
2023-05-10T05:14:15.474Z,12.64
2023-05-10T05:16:42.754Z,12.77
2023-05-10T05:19:09.943Z,12.85
2023-05-10T05:21:37.185Z,12.84
2023-05-10T05:24:04.668Z,12.79
2023-05-10T05:26:31.748Z,12.73
2023-05-10T05:28:58.779Z,12.74
2023-05-10T05:31:25.902Z,12.81
2023-05-10T05:33:53.048Z,12.90
2023-05-10T05:36:20.150Z,12.88
2023-05-10T05:38:47.334Z,12.86
2023-05-10T05:41:14.443Z,12.87
2023-05-10T05:43:41.586Z,13.01
2023-05-10T05:46:09.926Z,12.96
2023-05-10T05:48:37.074Z,12.96
2023-05-10T05:51:06.536Z,13.09
2023-05-10T05:53:34.752Z,13.07
2023-05-10T05:56:01.904Z,13.22
2023-05-10T05:58:29.218Z,13.32
2023-05-10T06:00:56.349Z,13.26
2023-05-10T06:03:23.429Z,13.12
2023-05-10T06:05:50.671Z,13.23
2023-05-10T06:08:17.941Z,13.39
2023-05-10T06:10:45.660Z,13.53
2023-05-10T06:13:12.859Z,13.71
2023-05-10T06:15:40.088Z,13.86
2023-05-10T06:18:07.388Z,13.88
2023-05-10T06:20:34.550Z,13.89
2023-05-10T06:23:01.641Z,14.04
2023-05-10T06:25:28.723Z,14.09
2023-05-10T06:27:58.612Z,14.21
2023-05-10T06:30:29.866Z,14.27
2023-05-10T06:32:57.950Z,14.37
2023-05-10T06:35:25.402Z,14.48
2023-05-10T06:37:52.733Z,14.56
2023-05-10T06:40:20.482Z,14.59
2023-05-10T06:42:48.516Z,14.76
2023-05-10T06:45:16.602Z,14.78
2023-05-10T06:47:44.521Z,14.69
2023-05-10T06:50:15.040Z,14.70
2023-05-10T06:52:42.339Z,14.87
2023-05-10T06:55:10.008Z,14.96
2023-05-10T06:57:37.295Z,15.03
2023-05-10T07:00:07.463Z,15.09
2023-05-10T07:02:34.759Z,15.26
2023-05-10T07:05:03.388Z,15.31
2023-05-10T07:07:31.063Z,15.45
2023-05-10T07:09:58.855Z,15.50
2023-05-10T07:12:26.450Z,15.65
2023-05-10T07:14:53.849Z,15.77
2023-05-10T07:17:21.174Z,15.94
2023-05-10T07:19:48.341Z,15.91
2023-05-10T07:22:16.606Z,15.72
2023-05-10T07:24:44.137Z,15.85
2023-05-10T07:27:11.241Z,15.89
2023-05-10T07:29:38.751Z,15.93
2023-05-10T07:32:07.014Z,15.86
2023-05-10T07:34:34.235Z,15.88
2023-05-10T07:37:02.253Z,16.15
2023-05-10T07:39:29.322Z,16.33
2023-05-10T07:41:57.010Z,16.42
2023-05-10T07:44:24.320Z,16.46
2023-05-10T07:46:51.774Z,16.50
2023-05-10T07:49:18.933Z,16.62
2023-05-10T07:51:46.041Z,16.80
2023-05-10T07:54:13.831Z,16.91
2023-05-10T07:56:43.121Z,16.89
2023-05-10T07:59:12.025Z,16.93
2023-05-10T08:01:39.813Z,16.89
2023-05-10T08:04:07.083Z,16.91
2023-05-10T08:06:34.297Z,16.90
2023-05-10T08:09:01.541Z,16.90
2023-05-10T08:13:58.546Z,16.88
2023-05-10T08:16:25.712Z,16.93
2023-05-10T08:18:53.003Z,16.88
2023-05-10T08:21:20.082Z,16.97
2023-05-10T08:23:47.300Z,17.06
2023-05-10T08:26:14.429Z,17.16
2023-05-10T08:28:41.570Z,17.11
2023-05-10T08:31:08.654Z,17.11
2023-05-10T08:33:35.785Z,17.13
2023-05-10T08:36:02.865Z,17.08
2023-05-10T08:38:30.085Z,16.96
2023-05-10T08:41:00.298Z,16.95
2023-05-10T08:43:31.393Z,16.85
2023-05-10T08:46:01.979Z,16.87
2023-05-10T08:48:30.546Z,16.91
2023-05-10T08:50:59.740Z,16.89
2023-05-10T08:53:28.469Z,16.96
2023-05-10T08:55:56.794Z,17.09
2023-05-10T08:58:24.113Z,17.01
2023-05-10T09:00:54.493Z,16.97
2023-05-10T09:03:21.872Z,17.01
2023-05-10T09:05:52.007Z,17.02
2023-05-10T09:08:19.568Z,17.07
2023-05-10T09:10:48.761Z,17.12
2023-05-10T09:13:19.173Z,17.17
2023-05-10T09:15:46.721Z,17.22
2023-05-10T09:18:14.150Z,17.28
2023-05-10T09:20:41.790Z,17.34
2023-05-10T09:23:09.047Z,17.37
2023-05-10T09:25:36.345Z,17.33
2023-05-10T09:28:03.502Z,17.27
2023-05-10T09:30:32.330Z,17.42
2023-05-10T09:33:00.807Z,17.42
2023-05-10T09:35:33.100Z,17.41
2023-05-10T09:38:06.757Z,17.44
2023-05-10T09:40:33.960Z,17.42
2023-05-10T09:43:03.821Z,17.45
2023-05-10T09:45:34.596Z,17.40
2023-05-10T09:48:03.694Z,17.47
2023-05-10T09:50:31.559Z,17.42
2023-05-10T09:53:01.010Z,17.41
2023-05-10T09:55:45.400Z,17.51
2023-05-10T09:58:13.739Z,17.58
2023-05-10T10:00:45.816Z,17.66
2023-05-10T10:03:21.308Z,17.84
2023-05-10T10:05:49.677Z,17.90
2023-05-10T10:08:17.955Z,17.84
2023-05-10T10:10:47.827Z,17.92
2023-05-10T10:13:16.229Z,18.05
2023-05-10T10:15:44.412Z,18.09
2023-05-10T10:18:15.632Z,17.97
2023-05-10T10:20:43.090Z,17.95
2023-05-10T10:23:10.893Z,17.94
2023-05-10T10:25:39.286Z,17.96
2023-05-10T10:28:11.637Z,17.97
2023-05-10T10:30:47.543Z,18.01
2023-05-10T10:33:28.546Z,18.06
2023-05-10T10:35:57.145Z,18.03
2023-05-10T10:38:24.541Z,18.04
2023-05-10T10:41:10.977Z,18.12
2023-05-10T10:43:38.082Z,18.24
2023-05-10T10:46:14.118Z,18.37
2023-05-10T10:48:53.573Z,18.36
2023-05-10T10:51:20.665Z,18.25
2023-05-10T10:53:49.215Z,18.27
2023-05-10T10:56:16.830Z,18.36
2023-05-10T10:58:52.532Z,18.23
2023-05-10T11:01:20.292Z,18.28
2023-05-10T11:04:20.241Z,18.29
2023-05-10T11:06:47.514Z,18.22
2023-05-10T11:09:14.719Z,18.17
2023-05-10T11:11:53.585Z,18.15
2023-05-10T11:14:23.941Z,18.24
2023-05-10T11:16:51.273Z,18.30
2023-05-10T11:19:19.567Z,18.40
2023-05-10T11:21:48.122Z,18.47
2023-05-10T11:24:20.381Z,18.31
2023-05-10T11:26:47.749Z,18.44
2023-05-10T11:29:15.180Z,18.59
2023-05-10T11:31:48.741Z,18.61
2023-05-10T11:34:25.977Z,18.48
2023-05-10T11:36:57.853Z,18.43
2023-05-10T11:39:31.512Z,18.59
2023-05-10T11:41:59.631Z,18.79
2023-05-10T11:44:35.725Z,18.85
2023-05-10T11:47:03.344Z,18.96
2023-05-10T11:49:30.701Z,18.94
2023-05-10T11:52:08.407Z,18.81
2023-05-10T11:54:36.295Z,18.77
2023-05-10T11:57:03.937Z,18.68
2023-05-10T11:59:31.141Z,18.79
2023-05-10T12:01:58.358Z,18.95
2023-05-10T12:04:26.170Z,19.08
2023-05-10T12:06:53.348Z,18.81
2023-05-10T12:09:31.489Z,18.74
2023-05-10T12:12:07.214Z,18.92
2023-05-10T12:14:36.677Z,18.94
2023-05-10T12:17:03.754Z,18.82
2023-05-10T12:19:38.919Z,18.80
2023-05-10T12:22:07.226Z,18.94
2023-05-10T12:24:39.379Z,19.00
2023-05-10T12:29:49.557Z,19.08
2023-05-10T12:32:16.711Z,19.01
2023-05-10T12:34:43.721Z,19.00
2023-05-10T12:37:10.851Z,18.96
2023-05-10T12:39:42.689Z,18.91
2023-05-10T12:42:09.714Z,18.88
2023-05-10T12:44:36.863Z,18.87
2023-05-10T12:47:03.867Z,19.06
2023-05-10T12:49:31.149Z,19.15
2023-05-10T12:51:58.161Z,19.06
2023-05-10T12:54:25.222Z,19.01
2023-05-10T12:56:52.420Z,19.03
2023-05-10T12:59:19.439Z,18.98
2023-05-10T13:01:46.695Z,18.92
2023-05-10T13:04:13.772Z,18.91
2023-05-10T13:06:40.827Z,18.99
2023-05-10T13:09:08.091Z,19.12
2023-05-10T13:11:35.357Z,19.20
2023-05-10T13:14:04.321Z,19.21
2023-05-10T13:16:32.440Z,19.20
2023-05-10T13:18:59.715Z,19.20
2023-05-10T13:21:26.971Z,19.08
2023-05-10T13:23:54.674Z,19.19
2023-05-10T13:26:22.435Z,19.12
2023-05-10T13:28:50.039Z,19.06
2023-05-10T13:31:17.098Z,19.07
2023-05-10T13:33:44.166Z,18.98
2023-05-10T13:36:11.336Z,19.00
2023-05-10T13:38:38.726Z,19.05
2023-05-10T13:41:05.901Z,19.18
2023-05-10T13:43:32.931Z,19.17
2023-05-10T13:46:00.028Z,19.09
2023-05-10T13:48:27.858Z,19.03
2023-05-10T13:50:54.912Z,19.03
2023-05-10T13:53:22.318Z,19.03
2023-05-10T13:55:49.690Z,19.00
2023-05-10T13:58:16.713Z,19.00
2023-05-10T14:00:44.411Z,18.96
2023-05-10T14:03:12.570Z,19.05
2023-05-10T14:05:39.753Z,19.04
2023-05-10T14:08:06.827Z,19.05
2023-05-10T14:10:33.828Z,19.04
2023-05-10T14:13:00.926Z,19.14
2023-05-10T14:15:27.981Z,19.29
2023-05-10T14:17:55.197Z,19.27
2023-05-10T14:20:22.152Z,19.20
2023-05-10T14:22:49.191Z,19.03
2023-05-10T14:25:16.500Z,18.95
2023-05-10T14:27:43.685Z,19.01
2023-05-10T14:30:11.342Z,18.98
2023-05-10T14:32:38.536Z,18.93
2023-05-10T14:35:07.288Z,18.89
2023-05-10T14:37:34.637Z,18.95
2023-05-10T14:40:01.961Z,19.05
2023-05-10T14:42:29.635Z,19.00
2023-05-10T14:44:56.716Z,18.99
2023-05-10T14:47:23.881Z,19.00
2023-05-10T14:49:51.322Z,18.94
2023-05-10T14:52:18.603Z,18.84
2023-05-10T14:54:45.704Z,18.77
2023-05-10T14:57:12.720Z,18.79
2023-05-10T14:59:39.704Z,18.80
2023-05-10T15:02:09.416Z,18.79
2023-05-10T15:04:37.069Z,18.73
2023-05-10T15:07:04.440Z,18.69
2023-05-10T15:09:31.679Z,18.78
2023-05-10T15:11:58.696Z,18.76
2023-05-10T15:14:26.082Z,18.71
2023-05-10T15:16:53.204Z,18.71
2023-05-10T15:19:21.145Z,18.69
2023-05-10T15:21:48.500Z,18.59
2023-05-10T15:24:15.721Z,18.60
2023-05-10T15:26:42.702Z,18.61
2023-05-10T15:29:09.805Z,18.66
2023-05-10T15:31:37.417Z,18.62
2023-05-10T15:34:04.366Z,18.61
2023-05-10T15:36:32.897Z,18.59
2023-05-10T15:38:59.961Z,18.55
2023-05-10T15:41:26.910Z,18.53
2023-05-10T15:43:54.903Z,18.48
2023-05-10T15:46:21.939Z,18.47
2023-05-10T15:48:48.969Z,18.52
2023-05-10T15:51:16.373Z,18.51
2023-05-10T15:53:56.458Z,18.49
2023-05-10T15:56:30.907Z,18.38
2023-05-10T15:58:57.975Z,18.40
2023-05-10T16:01:25.442Z,18.48
2023-05-10T16:03:52.578Z,18.42
2023-05-10T16:06:19.601Z,18.32
2023-05-10T16:08:46.590Z,18.25
2023-05-10T16:11:13.692Z,18.17
2023-05-10T16:13:40.711Z,18.10
2023-05-10T16:16:09.124Z,18.00
2023-05-10T16:18:36.555Z,17.93
2023-05-10T16:21:04.076Z,17.85
2023-05-10T16:23:31.151Z,17.79
2023-05-10T16:25:58.606Z,17.76
2023-05-10T16:28:25.778Z,17.69
2023-05-10T16:30:53.043Z,17.63
2023-05-10T16:33:20.325Z,17.60
2023-05-10T16:35:47.431Z,17.59
2023-05-10T16:38:15.221Z,17.59
2023-05-10T16:40:42.189Z,17.55
2023-05-10T16:43:09.530Z,17.52
2023-05-10T16:45:36.646Z,17.44
2023-05-10T16:48:04.130Z,17.45
2023-05-10T16:50:31.745Z,17.50
2023-05-10T16:52:59.068Z,17.47
2023-05-10T16:55:26.590Z,17.37
2023-05-10T16:57:58.955Z,17.27
2023-05-10T17:00:26.941Z,17.20
2023-05-10T17:02:55.046Z,17.18
2023-05-10T17:05:23.365Z,17.13
2023-05-10T17:07:50.871Z,17.08
2023-05-10T17:10:19.872Z,17.04
2023-05-10T17:12:47.913Z,16.99
2023-05-10T17:15:16.783Z,16.95
2023-05-10T17:17:44.102Z,16.89
2023-05-10T17:20:11.386Z,16.89
2023-05-10T17:22:38.480Z,16.86
2023-05-10T17:25:05.906Z,16.81
2023-05-10T17:27:32.954Z,16.73
2023-05-10T17:30:00.030Z,16.73
2023-05-10T17:32:27.313Z,16.61
2023-05-10T17:34:54.369Z,16.49
2023-05-10T17:37:21.626Z,16.38
2023-05-10T17:39:48.637Z,16.30
2023-05-10T17:42:17.830Z,16.23
2023-05-10T17:44:44.867Z,16.22
2023-05-10T17:47:11.913Z,16.16
2023-05-10T17:49:40.098Z,16.06
2023-05-10T17:52:07.620Z,15.99
2023-05-10T17:54:35.086Z,15.92
2023-05-10T17:57:02.429Z,15.84
2023-05-10T17:59:29.610Z,15.76
2023-05-10T18:01:56.732Z,15.70
2023-05-10T18:04:24.114Z,15.63
2023-05-10T18:06:51.212Z,15.55
2023-05-10T18:09:18.500Z,15.45
2023-05-10T18:11:45.770Z,15.36
2023-05-10T18:14:12.773Z,15.29
2023-05-10T18:16:40.252Z,15.20
2023-05-10T18:19:07.447Z,15.12
2023-05-10T18:21:34.897Z,14.99
2023-05-10T18:24:02.398Z,14.85
2023-05-10T18:26:30.259Z,14.74
2023-05-10T18:28:59.201Z,14.62
2023-05-10T18:31:27.740Z,14.54
2023-05-10T18:33:54.875Z,14.46
2023-05-10T18:36:23.585Z,14.36
2023-05-10T18:38:50.930Z,14.28
2023-05-10T18:41:18.930Z,14.18
2023-05-10T18:43:46.288Z,14.10
2023-05-10T18:46:13.378Z,14.05
2023-05-10T18:48:40.840Z,13.95
2023-05-10T18:51:07.874Z,13.87
2023-05-10T18:53:35.279Z,13.78
2023-05-10T18:56:02.268Z,13.73
2023-05-10T18:58:29.737Z,13.63
2023-05-10T19:00:57.186Z,13.54
2023-05-10T19:03:24.284Z,13.48
2023-05-10T19:05:51.578Z,13.44
2023-05-10T19:08:19.699Z,13.39
2023-05-10T19:10:46.976Z,13.32
2023-05-10T19:13:15.337Z,13.29
2023-05-10T19:15:42.657Z,13.22
2023-05-10T19:18:10.301Z,13.16
2023-05-10T19:20:39.829Z,13.10
2023-05-10T19:23:10.270Z,13.05
2023-05-10T19:25:40.752Z,12.98
2023-05-10T19:28:10.225Z,12.94
2023-05-10T19:30:38.053Z,12.89
2023-05-10T19:33:05.971Z,12.85
2023-05-10T19:35:32.999Z,12.79
2023-05-10T19:38:00.045Z,12.69
2023-05-10T19:40:27.080Z,12.62
2023-05-10T19:42:57.078Z,12.58
2023-05-10T19:45:24.119Z,12.52
2023-05-10T19:47:51.353Z,12.46
2023-05-10T19:50:19.576Z,12.38
2023-05-10T19:52:47.081Z,12.30
2023-05-10T19:55:17.667Z,12.21
2023-05-10T19:57:46.331Z,12.13
2023-05-10T20:00:14.203Z,12.07
2023-05-10T20:02:41.207Z,12.01
2023-05-10T20:05:08.589Z,11.96
2023-05-10T20:07:37.062Z,11.90
2023-05-10T20:10:04.633Z,11.80
2023-05-10T20:12:31.787Z,11.67
2023-05-10T20:14:58.875Z,11.62
2023-05-10T20:17:26.258Z,11.55
2023-05-10T20:19:53.307Z,11.50
2023-05-10T20:22:20.519Z,11.43
2023-05-10T20:24:48.382Z,11.43
2023-05-10T20:27:15.387Z,11.37
2023-05-10T20:29:42.531Z,11.33
2023-05-10T20:32:09.552Z,11.36
2023-05-10T20:34:36.734Z,11.37
2023-05-10T20:37:04.025Z,11.36
2023-05-10T20:39:31.222Z,11.37
2023-05-10T20:41:58.264Z,11.36
2023-05-10T20:44:25.571Z,11.35
2023-05-10T20:46:52.711Z,11.34
2023-05-10T20:49:19.983Z,11.32
2023-05-10T20:51:47.217Z,11.30
2023-05-10T20:54:14.529Z,11.32
2023-05-10T20:56:41.544Z,11.30
2023-05-10T20:59:08.612Z,11.28
2023-05-10T21:01:35.643Z,11.28
2023-05-10T21:04:03.518Z,11.22
2023-05-10T21:06:31.663Z,11.19
2023-05-10T21:08:58.723Z,11.16
2023-05-10T21:11:25.973Z,11.13
2023-05-10T21:13:53.008Z,11.11
2023-05-10T21:16:20.264Z,11.07
2023-05-10T21:18:47.532Z,11.02
2023-05-10T21:21:14.657Z,10.95
2023-05-10T21:23:41.748Z,10.94
2023-05-10T21:26:08.765Z,10.96
2023-05-10T21:28:36.537Z,10.93
2023-05-10T21:31:04.925Z,10.85
2023-05-10T21:33:32.257Z,10.80
2023-05-10T21:35:59.337Z,10.79
2023-05-10T21:38:28.257Z,10.79
2023-05-10T21:40:55.275Z,10.78
2023-05-10T21:43:22.357Z,10.76
2023-05-10T21:45:49.527Z,10.75
2023-05-10T21:48:16.547Z,10.69
2023-05-10T21:50:44.074Z,10.64
2023-05-10T21:53:11.131Z,10.59
2023-05-10T21:55:38.288Z,10.51
2023-05-10T21:58:05.665Z,10.48
2023-05-10T22:00:34.163Z,10.41
2023-05-10T22:03:01.533Z,10.35
2023-05-10T22:05:29.307Z,10.31
2023-05-10T22:07:56.535Z,10.26
2023-05-10T22:10:23.589Z,10.21
2023-05-10T22:12:50.899Z,10.16
2023-05-10T22:15:18.070Z,10.14
2023-05-10T22:17:45.209Z,10.09
2023-05-10T22:20:12.753Z,10.07
2023-05-10T22:22:39.823Z,10.03
2023-05-10T22:25:07.834Z,10.02
2023-05-10T22:27:35.245Z,9.99
2023-05-10T22:30:02.992Z,9.99
2023-05-10T22:32:31.870Z,9.97
2023-05-10T22:34:58.983Z,9.95
2023-05-10T22:37:26.290Z,9.95
2023-05-10T22:39:53.837Z,9.93
2023-05-10T22:42:20.936Z,9.91
2023-05-10T22:44:48.530Z,9.84
2023-05-10T22:47:16.553Z,9.80
2023-05-10T22:49:43.544Z,9.73
2023-05-10T22:52:11.219Z,9.70
2023-05-10T22:54:38.356Z,9.67
2023-05-10T22:57:06.265Z,9.65
2023-05-10T22:59:33.834Z,9.59
2023-05-10T23:02:00.879Z,9.56
2023-05-10T23:04:28.027Z,9.54
2023-05-10T23:06:55.084Z,9.54
2023-05-10T23:09:22.185Z,9.51
2023-05-10T23:11:49.338Z,9.51
2023-05-10T23:14:16.453Z,9.45
2023-05-10T23:16:43.484Z,9.43
2023-05-10T23:19:10.589Z,9.42
2023-05-10T23:21:37.692Z,9.42
2023-05-10T23:24:05.171Z,9.41
2023-05-10T23:26:32.222Z,9.39
2023-05-10T23:29:00.671Z,9.37
2023-05-10T23:31:28.067Z,9.31
2023-05-10T23:33:55.225Z,9.23
2023-05-10T23:36:22.261Z,9.19
2023-05-10T23:38:49.367Z,9.13
2023-05-10T23:41:16.424Z,9.07
2023-05-10T23:43:43.683Z,9.09
2023-05-10T23:46:10.756Z,9.06
2023-05-10T23:48:37.876Z,8.99
2023-05-10T23:51:05.117Z,8.93
2023-05-10T23:53:32.239Z,8.86
2023-05-10T23:55:59.244Z,8.79
2023-05-10T23:58:26.349Z,8.69
